Time;durP1;ratioP1;P1;durP2;ratioP2;P2;SDS_P1;SDS_P2;PMS_P1;PMS_P2;Temp;Humidity;BMP_temperature;BMP_pressure;BME280_temperature;BME280_humidity;BME280_pressure;Samples;Min_cycle;Max_cycle;Signal;HPM_P1;HPM_P2
2022/09/07 00:01:04;;;;;;;6.30;1.50;;;21.00;99.90;;;;;;4950991;29;20532;-78
2022/09/07 00:03:31;;;;;;;4.78;1.05;;;20.90;99.90;;;;;;4954122;28;20062;-77
2022/09/07 00:05:58;;;;;;;6.88;2.00;;;20.80;99.90;;;;;;4957432;28;20055;-77
2022/09/07 00:08:26;;;;;;;2.28;1.10;;;20.80;99.90;;;;;;4940177;29;20130;-78
2022/09/07 00:11:00;;;;;;;6.03;1.40;;;20.80;99.90;;;;;;4957586;29;20055;-78
2022/09/07 00:13:29;;;;;;;3.97;1.35;;;20.80;99.90;;;;;;4957517;29;20055;-77
2022/09/07 00:15:56;;;;;;;4.17;1.40;;;20.80;99.90;;;;;;4940096;29;20087;-78
2022/09/07 00:18:23;;;;;;;8.95;1.50;;;20.60;99.90;;;;;;4956834;29;20406;-77
2022/09/07 00:21:01;;;;;;;5.22;1.30;;;20.60;99.90;;;;;;4955679;29;20549;-77
2022/09/07 00:23:29;;;;;;;5.70;1.42;;;20.60;99.90;;;;;;4958179;28;20138;-78
2022/09/07 00:26:05;;;;;;;3.50;1.20;;;20.50;99.90;;;;;;4938517;29;20055;-78
2022/09/07 00:28:32;;;;;;;5.80;1.42;;;20.50;99.90;;;;;;4955927;29;20086;-78
2022/09/07 00:30:59;;;;;;;4.13;1.33;;;20.50;99.90;;;;;;4957398;29;20058;-78
2022/09/07 00:33:26;;;;;;;5.47;1.73;;;20.40;99.90;;;;;;4955315;29;20413;-77
2022/09/07 00:35:53;;;;;;;6.07;1.40;;;20.40;99.90;;;;;;4957169;28;20398;-77
2022/09/07 00:38:20;;;;;;;3.35;1.52;;;20.30;99.90;;;;;;4956741;29;20043;-78
2022/09/07 00:40:46;;;;;;;4.82;2.15;;;20.30;99.90;;;;;;4956850;29;20094;-78
2022/09/07 00:43:17;;;;;;;3.15;1.10;;;20.20;99.90;;;;;;4956684;29;20543;-78
2022/09/07 00:45:43;;;;;;;4.28;1.20;;;20.20;99.90;;;;;;4956502;28;20122;-77
2022/09/07 00:48:15;;;;;;;4.38;1.30;;;20.10;99.90;;;;;;4956349;29;20142;-77
2022/09/07 00:50:48;;;;;;;7.57;1.38;;;20.00;99.90;;;;;;4956384;29;20047;-78
2022/09/07 00:53:31;;;;;;;8.45;1.65;;;20.00;99.90;;;;;;4956638;29;20083;-77
2022/09/07 00:55:59;;;;;;;6.85;1.75;;;20.00;99.90;;;;;;4956700;28;20130;-77
2022/09/07 00:58:26;;;;;;;6.45;1.67;;;20.00;99.90;;;;;;4955964;29;20131;-77
2022/09/07 01:00:54;;;;;;;8.75;2.38;;;20.20;99.90;;;;;;4956407;29;20058;-77
2022/09/07 01:03:29;;;;;;;6.63;1.60;;;20.30;99.90;;;;;;4957268;29;20147;-78
2022/09/07 01:06:00;;;;;;;7.22;1.75;;;20.30;99.90;;;;;;4953495;29;20134;-78
2022/09/07 01:08:27;;;;;;;;;;;20.40;99.90;;;;;;4957166;29;20391;-77
2022/09/07 01:10:54;;;;;;;6.28;1.60;;;20.50;99.90;;;;;;4956865;29;19922;-77
2022/09/07 01:13:21;;;;;;;6.18;1.60;;;20.50;99.90;;;;;;4956942;29;20510;-78
2022/09/07 01:15:56;;;;;;;12.18;2.30;;;20.70;99.90;;;;;;4956141;28;20130;-78
2022/09/07 01:18:44;;;;;;;6.55;1.50;;;20.70;99.90;;;;;;4956000;29;20093;-78
2022/09/07 01:21:25;;;;;;;6.47;1.55;;;20.80;99.90;;;;;;4956555;29;20091;-78
2022/09/07 01:24:17;;;;;;;6.78;1.80;;;20.80;99.90;;;;;;4956601;29;20051;-77
2022/09/07 01:27:25;;;;;;;6.57;1.45;;;20.80;99.90;;;;;;4956471;29;20047;-78
2022/09/07 01:30:03;;;;;;;8.48;1.90;;;20.90;99.90;;;;;;4954022;29;20130;-77
2022/09/07 01:32:41;;;;;;;5.30;1.52;;;20.90;99.90;;;;;;4956593;29;20130;-77
2022/09/07 01:35:20;;;;;;;9.05;1.90;;;21.00;99.90;;;;;;4956581;28;20051;-77
2022/09/07 01:37:59;;;;;;;8.82;2.15;;;21.00;99.90;;;;;;4956803;29;20146;-78
2022/09/07 01:41:03;;;;;;;14.20;2.78;;;21.00;99.90;;;;;;4955295;29;20134;-77
2022/09/07 01:43:51;;;;;;;12.60;2.08;;;21.00;99.90;;;;;;4934036;29;20141;-78
2022/09/07 01:46:32;;;;;;;9.75;2.38;;;21.00;99.90;;;;;;4956030;28;20082;-78
2022/09/07 01:49:21;;;;;;;6.53;1.83;;;21.00;99.90;;;;;;4956486;29;20055;-78
2022/09/07 01:51:55;;;;;;;9.85;2.00;;;21.00;99.90;;;;;;4956113;29;20066;-78
2022/09/07 01:54:30;;;;;;;7.47;1.83;;;21.00;99.90;;;;;;4953478;28;20058;-78
2022/09/07 01:57:03;;;;;;;4.38;1.50;;;21.00;99.90;;;;;;4956403;29;20097;-77
2022/09/07 02:00:09;;;;;;;9.75;1.75;;;21.00;99.90;;;;;;4954357;29;20150;-78
2022/09/07 02:02:59;;;;;;;8.85;2.10;;;21.00;99.90;;;;;;4938711;29;20057;-78
2022/09/07 02:05:57;;;;;;;8.20;1.77;;;21.00;99.90;;;;;;4955299;28;20718;-78
2022/09/07 02:08:30;;;;;;;10.85;2.05;;;21.00;99.90;;;;;;4955265;29;20086;-78
2022/09/07 02:11:05;;;;;;;13.70;2.08;;;21.00;99.90;;;;;;4955938;29;20082;-79
2022/09/07 02:13:38;;;;;;;7.60;1.55;;;21.10;99.90;;;;;;4955953;29;20055;-78
2022/09/07 02:16:10;;;;;;;6.15;1.70;;;21.10;99.90;;;;;;4955922;28;20047;-78
2022/09/07 02:18:44;;;;;;;6.18;1.70;;;21.10;99.90;;;;;;4955193;29;20043;-78
2022/09/07 02:21:14;;;;;;;8.52;1.90;;;21.10;99.90;;;;;;4954651;29;20075;-78
2022/09/07 02:23:50;;;;;;;6.47;2.33;;;21.10;99.90;;;;;;4935844;29;20087;-78
2022/09/07 02:26:23;;;;;;;9.68;1.80;;;21.10;99.90;;;;;;4954572;28;20106;-77
2022/09/07 02:28:50;;;;;;;9.60;2.13;;;21.10;99.90;;;;;;4954202;29;20744;-78
2022/09/07 02:31:17;;;;;;;5.35;1.85;;;21.10;99.90;;;;;;4938589;29;20137;-78
2022/09/07 02:33:44;;;;;;;6.18;1.65;;;21.10;99.90;;;;;;4938290;29;20106;-78
2022/09/07 02:36:14;;;;;;;8.70;1.63;;;21.10;99.90;;;;;;4938630;29;20094;-78
2022/09/07 02:38:41;;;;;;;;;;;21.10;99.90;;;;;;4955900;29;20417;-78
2022/09/07 02:41:34;;;;;;;11.52;2.03;;;21.10;99.90;;;;;;4955772;29;20009;-78
2022/09/07 02:44:04;;;;;;;7.90;1.75;;;21.20;99.90;;;;;;4938322;29;20145;-78
2022/09/07 02:46:49;;;;;;;4.03;1.60;;;21.20;99.90;;;;;;4953867;29;20186;-78
2022/09/07 02:49:31;;;;;;;10.52;1.95;;;21.20;99.90;;;;;;4955247;29;20557;-77
2022/09/07 02:52:21;;;;;;;7.72;1.73;;;21.30;99.90;;;;;;4955170;29;20083;-78
2022/09/07 02:55:04;;;;;;;7.78;1.65;;;21.30;99.90;;;;;;4953724;28;20134;-76
2022/09/07 02:57:39;;;;;;;7.25;1.83;;;21.30;99.90;;;;;;4953434;29;20097;-77
2022/09/07 03:00:17;;;;;;;9.65;2.35;;;21.30;99.90;;;;;;4952713;29;20570;-76
2022/09/07 03:03:10;;;;;;;7.18;2.08;;;21.30;99.90;;;;;;4952935;29;20505;-75
2022/09/07 03:05:53;;;;;;;6.07;1.88;;;21.30;99.90;;;;;;4954209;28;20473;-78
2022/09/07 03:08:28;;;;;;;6.88;1.65;;;21.40;99.90;;;;;;4936623;29;20083;-79
2022/09/07 03:10:57;;;;;;;13.70;2.45;;;21.40;99.90;;;;;;4953972;29;20051;-77
2022/09/07 03:13:27;;;;;;;8.95;1.75;;;21.40;99.90;;;;;;4936700;29;20133;-78
2022/09/07 03:15:54;;;;;;;;;;;21.40;99.90;;;;;;4955035;28;20054;-78
2022/09/07 03:18:23;;;;;;;8.52;2.05;;;21.40;99.90;;;;;;4953435;29;20395;-77
2022/09/07 03:20:50;;;;;;;8.52;2.20;;;21.40;99.90;;;;;;4955162;29;20057;-77
2022/09/07 03:23:16;;;;;;;5.85;2.05;;;21.40;99.90;;;;;;4938370;29;20506;-78
2022/09/07 03:25:43;;;;;;;6.82;1.90;;;21.50;99.90;;;;;;4955045;28;20138;-77
2022/09/07 03:28:10;;;;;;;5.18;1.45;;;21.50;99.90;;;;;;4955247;29;20513;-77
2022/09/07 03:30:42;;;;;;;7.53;1.75;;;21.50;99.90;;;;;;4954092;29;20568;-76
2022/09/07 03:33:09;;;;;;;10.95;1.90;;;21.50;99.90;;;;;;4951512;29;20058;-76
2022/09/07 03:35:36;;;;;;;7.20;1.83;;;21.50;99.90;;;;;;4953088;28;20134;-76
2022/09/07 03:38:03;;;;;;;7.63;1.83;;;21.50;99.90;;;;;;4957116;28;20572;-78
2022/09/07 03:40:29;;;;;;;10.98;2.28;;;21.50;99.90;;;;;;4961361;28;20666;-77
2022/09/07 03:42:56;;;;;;;12.63;2.50;;;21.50;99.90;;;;;;4960060;28;20135;-77
2022/09/07 03:45:23;;;;;;;7.78;2.17;;;21.60;99.90;;;;;;4959961;28;20055;-78
2022/09/07 03:47:50;;;;;;;12.20;2.53;;;21.60;99.90;;;;;;4959609;29;20122;-78
2022/09/07 03:50:16;;;;;;;9.32;1.83;;;21.60;99.90;;;;;;4942672;29;20079;-77
2022/09/07 03:52:43;;;;;;;10.18;1.88;;;21.60;99.90;;;;;;4960011;29;20075;-77
2022/09/07 03:55:10;;;;;;;10.30;1.75;;;21.60;99.90;;;;;;4960311;28;20127;-77
2022/09/07 03:57:37;;;;;;;8.75;2.65;;;21.60;99.90;;;;;;4960571;29;20139;-78
2022/09/07 04:00:05;;;;;;;8.02;1.83;;;21.60;99.90;;;;;;4960550;29;20560;-78
2022/09/07 04:02:31;;;;;;;9.40;2.75;;;21.50;99.90;;;;;;4961055;28;20186;-78
2022/09/07 04:04:58;;;;;;;9.77;1.80;;;21.50;99.90;;;;;;4960955;28;20054;-77
2022/09/07 04:07:25;;;;;;;7.05;2.13;;;21.50;99.90;;;;;;4960986;28;20138;-77
2022/09/07 04:09:51;;;;;;;7.38;2.00;;;21.40;99.90;;;;;;4960801;29;20133;-77
2022/09/07 04:12:18;;;;;;;7.22;2.30;;;21.40;99.90;;;;;;4960931;29;20142;-78
2022/09/07 04:14:45;;;;;;;10.82;2.13;;;21.30;99.90;;;;;;4961231;28;20078;-78
2022/09/07 04:17:11;;;;;;;11.18;1.75;;;21.30;99.90;;;;;;4944338;29;20089;-78
2022/09/07 04:19:38;;;;;;;10.30;2.72;;;21.20;99.90;;;;;;4961077;29;20062;-78
2022/09/07 04:22:05;;;;;;;6.53;2.00;;;21.20;99.90;;;;;;4959337;29;20086;-78
2022/09/07 04:24:31;;;;;;;8.77;2.53;;;21.20;99.90;;;;;;4960565;28;20141;-78
2022/09/07 04:26:59;;;;;;;7.25;3.03;;;21.10;99.90;;;;;;4960860;29;20105;-78
2022/09/07 04:29:25;;;;;;;7.55;2.72;;;21.00;99.90;;;;;;4961441;28;20470;-77
2022/09/07 04:31:52;;;;;;;9.18;2.10;;;21.00;99.90;;;;;;4959883;29;20496;-78
2022/09/07 04:34:19;;;;;;;9.52;2.58;;;21.00;99.90;;;;;;4960814;28;20087;-78
2022/09/07 04:36:46;;;;;;;4.90;1.83;;;20.90;99.90;;;;;;4961329;29;20421;-78
2022/09/07 04:39:12;;;;;;;5.30;2.08;;;20.80;99.90;;;;;;4960396;28;20490;-78
2022/09/07 04:41:39;;;;;;;7.05;2.33;;;20.70;99.90;;;;;;4959330;28;20107;-78
2022/09/07 04:44:06;;;;;;;10.18;2.30;;;20.60;99.90;;;;;;4943704;29;20496;-78
2022/09/07 04:46:35;;;;;;;4.97;2.25;;;20.60;99.90;;;;;;4960708;28;20055;-77
2022/09/07 04:49:05;;;;;;;6.97;1.95;;;20.60;99.90;;;;;;4959283;28;20544;-77
2022/09/07 04:51:32;;;;;;;8.18;2.00;;;20.60;99.90;;;;;;4957615;29;20297;-78
2022/09/07 04:54:01;;;;;;;5.63;2.10;;;20.50;99.90;;;;;;4957698;29;20090;-77
2022/09/07 04:56:28;;;;;;;6.22;2.00;;;20.50;99.90;;;;;;4957279;28;20097;-78
2022/09/07 04:58:55;;;;;;;8.80;2.22;;;20.40;99.90;;;;;;4940207;29;20138;-78
2022/09/07 05:01:23;;;;;;;8.93;2.30;;;20.40;99.90;;;;;;4954853;29;20051;-78
2022/09/07 05:03:50;;;;;;;8.73;2.20;;;20.40;99.90;;;;;;4940163;29;20055;-77
2022/09/07 05:06:19;;;;;;;8.23;2.63;;;20.30;99.90;;;;;;4956695;28;20087;-78
2022/09/07 05:08:48;;;;;;;6.60;2.20;;;20.30;99.90;;;;;;4956994;29;20079;-77
2022/09/07 05:11:16;;;;;;;8.32;2.97;;;20.30;99.90;;;;;;4957566;29;20082;-76
2022/09/07 05:13:43;;;;;;;5.85;2.20;;;20.20;99.90;;;;;;4955399;29;20102;-77
2022/09/07 05:16:18;;;;;;;11.00;2.40;;;20.20;99.90;;;;;;4939671;29;20514;-78
2022/09/07 05:18:50;;;;;;;8.32;2.63;;;20.20;99.90;;;;;;4955063;29;20073;-79
2022/09/07 05:21:19;;;;;;;13.13;3.33;;;20.20;99.90;;;;;;4955885;29;20082;-79
2022/09/07 05:23:50;;;;;;;8.15;2.92;;;20.20;99.90;;;;;;4955261;29;20090;-78
2022/09/07 05:26:18;;;;;;;8.00;2.50;;;20.10;99.90;;;;;;4955922;28;20055;-78
2022/09/07 05:28:45;;;;;;;9.98;2.50;;;20.10;99.90;;;;;;4956432;29;20083;-78
2022/09/07 05:31:21;;;;;;;10.93;2.70;;;20.10;99.90;;;;;;4956754;29;20090;-77
2022/09/07 05:33:52;;;;;;;7.30;2.95;;;20.10;99.90;;;;;;4956842;28;20545;-78
2022/09/07 05:36:40;;;;;;;6.43;2.28;;;20.10;99.90;;;;;;4942053;29;20047;-77
2022/09/07 05:39:07;;;;;;;8.75;2.28;;;20.10;99.90;;;;;;4939222;29;20065;-77
2022/09/07 05:41:34;;;;;;;6.72;2.20;;;20.10;99.90;;;;;;4956780;29;20721;-78
2022/09/07 05:44:01;;;;;;;6.75;1.65;;;20.10;99.90;;;;;;4955549;29;20513;-77
2022/09/07 05:46:47;;;;;;;9.05;2.30;;;20.10;99.90;;;;;;4956865;29;20055;-78
2022/09/07 05:49:14;;;;;;;8.32;2.53;;;20.10;99.90;;;;;;4955344;29;20127;-78
2022/09/07 05:51:41;;;;;;;8.35;2.17;;;20.20;99.90;;;;;;4955822;29;20083;-78
2022/09/07 05:54:09;;;;;;;8.70;2.10;;;20.20;99.90;;;;;;4956103;29;20674;-77
2022/09/07 05:56:36;;;;;;;9.75;2.20;;;20.20;99.90;;;;;;4956212;28;20086;-77
2022/09/07 05:59:03;;;;;;;12.32;2.33;;;20.20;99.90;;;;;;4956379;29;20131;-77
2022/09/07 06:01:30;;;;;;;8.43;1.90;;;20.30;99.90;;;;;;4955116;28;20087;-77
2022/09/07 06:03:57;;;;;;;6.88;1.70;;;20.30;99.90;;;;;;4956573;29;20445;-77
2022/09/07 06:06:24;;;;;;;7.55;2.25;;;20.30;99.90;;;;;;4956090;28;20051;-77
2022/09/07 06:08:52;;;;;;;6.93;2.38;;;20.30;99.90;;;;;;4955683;29;20070;-77
2022/09/07 06:11:21;;;;;;;8.07;2.13;;;20.30;99.90;;;;;;4955908;29;20093;-77
2022/09/07 06:13:48;;;;;;;10.32;2.28;;;20.30;99.90;;;;;;4956182;29;20137;-77
2022/09/07 06:16:17;;;;;;;6.95;2.35;;;20.40;99.90;;;;;;4955613;28;20078;-77
2022/09/07 06:18:46;;;;;;;9.85;2.25;;;20.30;99.90;;;;;;4954169;29;20051;-77
2022/09/07 06:21:15;;;;;;;5.20;2.40;;;20.40;99.90;;;;;;4937725;29;20051;-77
2022/09/07 06:23:43;;;;;;;7.53;2.20;;;20.40;99.90;;;;;;4952756;29;20051;-77
2022/09/07 06:26:11;;;;;;;11.45;1.88;;;20.40;99.90;;;;;;4938887;29;20085;-77
2022/09/07 06:28:43;;;;;;;6.00;2.03;;;20.40;99.90;;;;;;4957098;29;20597;-77
2022/09/07 06:31:17;;;;;;;7.68;2.78;;;20.50;99.90;;;;;;4956988;29;20047;-77
2022/09/07 06:33:45;;;;;;;8.25;2.20;;;20.50;99.90;;;;;;4955539;28;20053;-78
2022/09/07 06:36:14;;;;;;;6.90;2.10;;;20.50;99.90;;;;;;4955331;28;20137;-78
2022/09/07 06:38:42;;;;;;;5.90;2.25;;;20.50;99.90;;;;;;4955109;29;20121;-78
2022/09/07 06:41:20;;;;;;;10.07;1.85;;;20.50;99.90;;;;;;4954835;29;20086;-78
2022/09/07 06:44:07;;;;;;;5.30;2.00;;;20.60;99.90;;;;;;4954768;29;20055;-78
2022/09/07 06:46:33;;;;;;;10.40;1.80;;;20.60;99.90;;;;;;4954546;28;20544;-78
2022/09/07 06:49:20;;;;;;;6.18;2.00;;;20.60;99.90;;;;;;4954494;29;20055;-78
2022/09/07 06:51:47;;;;;;;6.88;2.10;;;20.70;99.90;;;;;;4954353;29;20525;-78
2022/09/07 06:54:14;;;;;;;7.20;2.10;;;20.70;99.90;;;;;;4954609;29;20097;-78
2022/09/07 06:57:07;;;;;;;6.38;2.13;;;20.80;99.90;;;;;;4939947;29;20051;-78
2022/09/07 06:59:34;;;;;;;6.50;2.05;;;21.00;99.90;;;;;;4937933;29;20576;-78
2022/09/07 07:02:01;;;;;;;4.60;1.77;;;21.00;99.90;;;;;;4955856;29;20470;-78
2022/09/07 07:04:28;;;;;;;5.32;1.67;;;21.10;99.90;;;;;;4955394;28;20573;-78
2022/09/07 07:06:54;;;;;;;9.23;2.85;;;21.10;99.90;;;;;;4938606;29;20130;-78
2022/09/07 07:09:21;;;;;;;10.48;1.85;;;21.20;99.90;;;;;;4955347;29;20134;-78
2022/09/07 07:11:48;;;;;;;8.02;2.22;;;21.20;99.90;;;;;;4965231;28;20043;-78
2022/09/07 07:14:16;;;;;;;5.95;1.85;;;21.30;99.90;;;;;;4965148;28;20517;-78
2022/09/07 07:16:42;;;;;;;6.90;2.50;;;21.20;99.90;;;;;;4950901;29;20126;-77
2022/09/07 07:19:09;;;;;;;7.07;2.10;;;21.30;99.90;;;;;;4950075;29;20086;-77
2022/09/07 07:21:36;;;;;;;8.15;2.03;;;21.30;99.90;;;;;;4954955;29;20075;-77
2022/09/07 07:24:23;;;;;;;9.15;2.28;;;21.30;99.90;;;;;;4967136;28;20063;-78
2022/09/07 07:26:50;;;;;;;7.43;1.67;;;21.40;99.90;;;;;;4949365;29;20461;-78
2022/09/07 07:29:17;;;;;;;5.93;1.70;;;21.40;99.90;;;;;;4966523;29;20051;-77
2022/09/07 07:31:45;;;;;;;8.40;1.92;;;21.40;99.90;;;;;;4966480;29;20154;-78
2022/09/07 07:34:12;;;;;;;8.07;2.60;;;21.50;99.90;;;;;;4958077;29;20047;-78
2022/09/07 07:36:39;;;;;;;9.95;2.55;;;21.50;99.90;;;;;;4954241;28;20496;-78
2022/09/07 07:39:06;;;;;;;8.30;1.80;;;21.60;99.90;;;;;;4951720;28;20480;-78
2022/09/07 07:41:32;;;;;;;7.13;2.42;;;21.60;99.90;;;;;;4937031;29;20109;-78
2022/09/07 07:44:19;;;;;;;8.48;2.00;;;21.60;99.90;;;;;;4955248;28;20059;-77
2022/09/07 07:46:50;;;;;;;4.35;2.10;;;21.60;99.90;;;;;;4953203;29;20061;-77
2022/09/07 07:49:17;;;;;;;7.50;2.50;;;21.70;99.90;;;;;;4933646;29;20051;-77
2022/09/07 07:51:44;;;;;;;6.10;1.65;;;21.70;99.90;;;;;;4953485;29;20417;-77
2022/09/07 07:54:35;;;;;;;7.10;1.65;;;21.70;99.90;;;;;;4952832;28;20501;-77
2022/09/07 07:57:04;;;;;;;9.20;2.47;;;21.70;99.90;;;;;;4952096;29;20498;-77
2022/09/07 07:59:30;;;;;;;9.45;2.10;;;21.80;99.90;;;;;;4952053;29;20062;-78
2022/09/07 08:02:02;;;;;;;7.13;1.98;;;21.80;99.90;;;;;;4949048;29;20067;-78
2022/09/07 08:04:31;;;;;;;7.78;2.17;;;21.80;99.90;;;;;;4952389;28;20059;-78
2022/09/07 08:06:58;;;;;;;4.53;1.83;;;21.90;99.90;;;;;;4953376;29;20143;-78
2022/09/07 08:09:25;;;;;;;6.10;2.10;;;21.90;99.90;;;;;;4953876;28;20043;-78
2022/09/07 08:11:51;;;;;;;7.82;2.38;;;22.00;99.90;;;;;;4953548;29;20043;-77
2022/09/07 08:14:18;;;;;;;9.40;2.60;;;22.00;99.90;;;;;;4951120;29;20062;-78
2022/09/07 08:16:45;;;;;;;7.30;1.85;;;22.10;99.90;;;;;;4953423;29;20048;-78
2022/09/07 08:19:12;;;;;;;6.13;2.15;;;22.10;99.90;;;;;;4952961;29;20047;-78
2022/09/07 08:21:39;;;;;;;6.72;2.15;;;22.10;99.90;;;;;;4952154;28;20051;-78
2022/09/07 08:24:06;;;;;;;9.68;1.88;;;22.20;99.90;;;;;;4950327;28;20062;-79
2022/09/07 08:26:32;;;;;;;7.75;2.30;;;22.20;99.90;;;;;;4956293;28;20051;-78
2022/09/07 08:28:59;;;;;;;10.30;2.65;;;22.20;99.90;;;;;;4954657;29;20509;-78
2022/09/07 08:31:25;;;;;;;4.22;1.90;;;22.20;99.90;;;;;;4953476;29;20497;-78
2022/09/07 08:33:52;;;;;;;5.72;2.70;;;22.30;99.90;;;;;;4957009;29;20043;-77
2022/09/07 08:36:20;;;;;;;5.57;1.80;;;22.30;99.90;;;;;;4952937;28;20055;-77
2022/09/07 08:38:47;;;;;;;7.38;1.90;;;22.40;99.90;;;;;;4953853;29;20047;-78
2022/09/07 08:41:35;;;;;;;6.72;1.98;;;22.40;99.90;;;;;;4958302;29;20053;-78
2022/09/07 08:44:22;;;;;;;10.45;2.15;;;22.40;99.90;;;;;;4946669;29;20055;-77
2022/09/07 08:46:53;;;;;;;7.25;2.08;;;22.40;99.90;;;;;;4960732;29;20048;-77
2022/09/07 08:49:37;;;;;;;7.35;1.70;;;22.50;99.90;;;;;;4944938;29;20048;-79
2022/09/07 08:52:11;;;;;;;6.85;1.70;;;22.50;99.90;;;;;;4959676;29;20054;-78
2022/09/07 08:54:41;;;;;;;6.55;1.70;;;22.50;99.90;;;;;;4960752;28;20435;-77
2022/09/07 08:57:08;;;;;;;6.60;2.20;;;22.60;99.90;;;;;;4945974;29;20763;-78
2022/09/07 09:00:00;;;;;;;4.60;1.85;;;22.60;99.90;;;;;;4961319;29;20055;-77
2022/09/07 09:02:28;;;;;;;6.65;1.70;;;22.60;99.90;;;;;;4961323;29;20137;-78
2022/09/07 09:05:02;;;;;;;5.97;1.75;;;22.70;99.90;;;;;;4960499;29;21018;-78
2022/09/07 09:07:52;;;;;;;7.15;2.80;;;22.70;99.90;;;;;;4962754;29;20066;-78
2022/09/07 09:10:28;;;;;;;8.48;2.17;;;22.70;99.90;;;;;;4960489;29;20051;-77
2022/09/07 09:13:25;;;;;;;6.93;2.22;;;22.70;99.90;;;;;;4962096;29;20051;-78
2022/09/07 09:16:37;;;;;;;4.10;1.83;;;22.80;99.90;;;;;;4959935;28;20066;-78
2022/09/07 09:19:39;;;;;;;5.53;1.63;;;22.80;99.90;;;;;;4943597;28;20055;-77
2022/09/07 09:22:20;;;;;;;7.05;1.70;;;22.90;99.90;;;;;;4939072;29;20047;-77
2022/09/07 09:25:02;;;;;;;5.35;1.83;;;22.90;99.90;;;;;;4949408;28;20071;-77
2022/09/07 09:27:28;;;;;;;5.72;1.77;;;23.00;99.90;;;;;;4937352;29;20040;-78
2022/09/07 09:29:55;;;;;;;5.22;1.80;;;23.00;99.90;;;;;;4956668;28;20047;-78
2022/09/07 09:33:10;;;;;;;6.63;1.70;;;23.00;99.90;;;;;;4958829;28;20134;-78
2022/09/07 09:35:38;;;;;;;9.02;1.75;;;23.10;99.90;;;;;;4950221;28;20047;-78
2022/09/07 09:38:30;;;;;;;6.05;1.85;;;23.10;99.90;;;;;;4955684;28;20047;-78
2022/09/07 09:41:09;;;;;;;8.73;1.77;;;23.10;99.90;;;;;;4956058;28;20150;-78
2022/09/07 09:43:51;;;;;;;4.78;1.65;;;23.10;99.90;;;;;;4954546;29;20527;-78
2022/09/07 09:46:28;;;;;;;7.30;1.80;;;23.20;99.90;;;;;;4956017;28;20066;-78
2022/09/07 09:48:58;;;;;;;8.45;1.98;;;23.20;99.90;;;;;;4954543;28;20055;-78
2022/09/07 09:51:28;;;;;;;8.30;1.77;;;23.20;99.90;;;;;;4956492;28;20043;-78
2022/09/07 09:54:21;;;;;;;;;;;23.30;99.90;;;;;;4955275;28;20062;-78
2022/09/07 09:56:48;;;;;;;6.13;1.88;;;23.30;99.90;;;;;;4953755;28;19922;-78
2022/09/07 09:59:15;;;;;;;5.78;2.13;;;23.40;99.90;;;;;;4955684;28;20055;-78
2022/09/07 10:02:27;;;;;;;7.25;1.58;;;23.40;99.90;;;;;;4955889;29;20114;-78
2022/09/07 10:05:47;;;;;;;6.22;1.77;;;23.40;99.90;;;;;;4959271;28;20106;-77
2022/09/07 10:08:27;;;;;;;6.73;1.70;;;23.50;99.90;;;;;;4927429;29;20055;-78
2022/09/07 10:10:55;;;;;;;7.70;2.13;;;23.50;99.90;;;;;;4955407;28;20314;-77
2022/09/07 10:13:34;;;;;;;4.93;1.98;;;23.50;99.90;;;;;;4939941;29;20054;-76
2022/09/07 10:16:06;;;;;;;5.43;1.95;;;23.50;99.90;;;;;;4950622;28;20046;-76
2022/09/07 10:18:55;;;;;;;5.18;1.58;;;23.60;99.90;;;;;;4952528;28;20062;-77
2022/09/07 10:21:27;;;;;;;8.73;1.70;;;23.70;99.90;;;;;;4952287;28;20050;-76
2022/09/07 10:24:14;;;;;;;7.13;1.65;;;23.80;99.90;;;;;;4951295;28;20063;-76
2022/09/07 10:26:43;;;;;;;4.95;1.73;;;23.90;99.90;;;;;;4934756;29;20062;-76
2022/09/07 10:29:29;;;;;;;6.15;1.83;;;24.00;99.90;;;;;;4934939;29;20051;-76
2022/09/07 10:32:16;;;;;;;6.22;1.55;;;24.00;99.90;;;;;;4950451;28;20473;-76
2022/09/07 10:34:49;;;;;;;4.68;1.50;;;24.00;99.90;;;;;;4951151;28;20054;-76
2022/09/07 10:37:43;;;;;;;7.20;1.80;;;24.10;99.90;;;;;;4953245;29;20485;-76
2022/09/07 10:40:33;;;;;;;6.88;2.33;;;24.10;99.90;;;;;;4953093;29;20054;-76
2022/09/07 10:43:42;;;;;;;4.35;1.77;;;24.10;99.90;;;;;;4946841;29;20054;-76
2022/09/07 10:46:33;;;;;;;3.70;1.65;;;24.10;99.90;;;;;;4951243;28;20047;-76
2022/09/07 10:49:41;;;;;;;5.38;1.40;;;24.10;99.90;;;;;;4950600;29;20398;-76
2022/09/07 10:52:42;;;;;;;6.13;1.60;;;24.20;99.90;;;;;;4950398;29;20126;-76
2022/09/07 10:55:49;;;;;;;7.38;2.03;;;24.30;99.90;;;;;;4933950;29;20061;-76
2022/09/07 10:58:38;;;;;;;4.93;1.55;;;24.30;99.90;;;;;;4930080;29;20051;-76
2022/09/07 11:01:40;;;;;;;7.32;1.85;;;24.40;99.90;;;;;;4952644;28;20086;-77
2022/09/07 11:04:39;;;;;;;6.78;1.45;;;24.50;99.90;;;;;;4950595;29;20477;-77
2022/09/07 11:07:43;;;;;;;11.43;2.05;;;24.60;99.90;;;;;;4952488;29;20051;-76
2022/09/07 11:10:27;;;;;;;3.50;1.35;;;24.70;99.90;;;;;;4951321;29;20071;-76
2022/09/07 11:12:59;;;;;;;7.28;2.05;;;24.90;99.90;;;;;;4953752;29;20445;-78
2022/09/07 11:15:30;;;;;;;7.25;1.90;;;25.10;99.90;;;;;;4952674;28;20745;-79
2022/09/07 11:18:18;;;;;;;6.10;1.90;;;25.20;99.90;;;;;;4955945;28;20043;-78
2022/09/07 11:20:57;;;;;;;5.35;1.60;;;25.30;99.90;;;;;;4954334;29;20066;-78
2022/09/07 11:23:35;;;;;;;5.83;1.60;;;25.50;99.90;;;;;;4953393;29;20512;-78
2022/09/07 11:26:16;;;;;;;3.97;1.50;;;25.60;99.90;;;;;;4937598;29;20054;-78
2022/09/07 11:28:53;;;;;;;5.35;1.60;;;25.70;99.90;;;;;;4952928;29;20058;-78
2022/09/07 11:31:42;;;;;;;5.47;1.80;;;25.70;99.90;;;;;;4939879;29;20051;-77
2022/09/07 11:34:20;;;;;;;9.57;1.90;;;25.90;99.90;;;;;;4953447;29;20409;-77
2022/09/07 11:37:18;;;;;;;9.10;1.70;;;25.90;99.90;;;;;;4952922;29;20050;-77
2022/09/07 11:40:12;;;;;;;5.88;1.60;;;26.00;99.90;;;;;;4951384;29;20059;-77
2022/09/07 11:43:10;;;;;;;4.03;1.40;;;26.00;99.90;;;;;;4935451;29;20098;-78
2022/09/07 11:45:54;;;;;;;5.30;1.60;;;26.10;99.90;;;;;;4950823;28;20051;-78
2022/09/07 11:48:45;;;;;;;5.63;1.50;;;26.10;99.90;;;;;;4953579;29;20124;-78
2022/09/07 11:51:35;;;;;;;2.65;1.45;;;26.10;99.90;;;;;;4955058;29;20055;-78
2022/09/07 11:54:45;;;;;;;8.82;1.80;;;26.10;99.90;;;;;;4964225;29;20051;-77
2022/09/07 11:57:31;;;;;;;;;;;26.00;99.90;;;;;;4963139;29;20043;-78
2022/09/07 12:00:10;;;;;;;4.28;1.65;;;26.10;99.90;;;;;;4956425;28;19930;-77
2022/09/07 12:02:58;;;;;;;4.00;1.60;;;26.00;99.90;;;;;;4940763;29;20055;-77
2022/09/07 12:05:44;;;;;;;4.38;1.50;;;26.10;99.90;;;;;;4958269;28;20130;-77
2022/09/07 12:08:29;;;;;;;4.43;1.38;;;26.10;99.90;;;;;;4958040;29;20051;-78
2022/09/07 12:11:13;;;;;;;5.90;1.67;;;26.10;99.90;;;;;;4955274;29;20055;-77
2022/09/07 12:13:52;;;;;;;5.00;1.30;;;26.00;99.90;;;;;;4956456;29;20417;-78
2022/09/07 12:16:59;;;;;;;4.70;1.65;;;26.00;99.90;;;;;;4956057;28;20050;-78
2022/09/07 12:19:27;;;;;;;3.55;1.50;;;25.90;99.90;;;;;;4951669;28;20861;-78
2022/09/07 12:21:58;;;;;;;4.95;1.60;;;25.90;99.90;;;;;;4955413;28;20058;-77
2022/09/07 12:24:33;;;;;;;5.05;1.33;;;25.90;99.90;;;;;;4956953;28;20153;-78
2022/09/07 12:27:02;;;;;;;4.63;1.55;;;25.90;99.90;;;;;;4955277;29;20466;-78
2022/09/07 12:29:29;;;;;;;5.93;1.35;;;26.00;99.90;;;;;;4952554;29;20055;-77
2022/09/07 12:32:06;;;;;;;5.65;1.42;;;26.00;99.90;;;;;;4957221;28;20055;-78
2022/09/07 12:34:54;;;;;;;5.00;1.80;;;26.20;99.90;;;;;;4958710;28;20047;-77
2022/09/07 12:37:37;;;;;;;4.30;1.25;;;26.20;99.90;;;;;;4956795;29;20054;-78
2022/09/07 12:40:26;;;;;;;5.60;1.33;;;26.30;99.90;;;;;;4942853;29;20066;-78
2022/09/07 12:43:11;;;;;;;6.50;1.55;;;26.40;99.90;;;;;;4954025;28;20489;-78
2022/09/07 12:45:37;;;;;;;3.75;1.30;;;26.40;99.90;;;;;;4953051;28;20448;-77
2022/09/07 12:48:13;;;;;;;2.55;1.20;;;26.40;99.90;;;;;;4951898;28;20051;-78
2022/09/07 12:51:04;;;;;;;5.63;1.27;;;26.50;99.90;;;;;;4953470;28;20051;-77
2022/09/07 12:53:55;;;;;;;2.40;1.45;;;26.50;99.90;;;;;;4952030;28;20047;-77
2022/09/07 12:56:57;;;;;;;6.05;1.48;;;26.60;99.90;;;;;;4954833;28;20047;-78
2022/09/07 13:00:11;;;;;;;2.40;1.00;;;26.60;99.90;;;;;;4954623;28;20051;-77
2022/09/07 13:03:01;;;;;;;3.20;0.90;;;26.70;99.90;;;;;;4956730;28;20143;-77
2022/09/07 13:05:54;;;;;;;2.58;1.13;;;26.80;99.90;;;;;;4955192;28;20525;-78
2022/09/07 13:09:03;;;;;;;4.60;1.58;;;26.90;99.90;;;;;;4956558;28;20047;-77
2022/09/07 13:11:34;;;;;;;3.33;1.08;;;26.90;99.90;;;;;;4955128;28;20051;-77
2022/09/07 13:14:04;;;;;;;2.95;1.10;;;26.90;99.90;;;;;;4956345;28;20501;-77
2022/09/07 13:16:37;;;;;;;2.45;1.02;;;27.00;99.90;;;;;;4957158;28;20458;-77
2022/09/07 13:19:44;;;;;;;2.33;1.00;;;26.90;99.90;;;;;;4951747;28;20044;-78
2022/09/07 13:22:34;;;;;;;1.88;1.17;;;27.00;99.90;;;;;;4939222;28;20051;-77
2022/09/07 13:25:22;;;;;;;2.75;0.93;;;27.00;99.90;;;;;;4948067;28;20058;-78
2022/09/07 13:27:52;;;;;;;4.38;0.98;;;27.00;99.90;;;;;;4955547;28;20056;-77
2022/09/07 13:30:21;;;;;;;3.42;1.10;;;27.00;99.90;;;;;;4955720;28;20482;-78
2022/09/07 13:32:48;;;;;;;2.83;1.13;;;27.10;99.90;;;;;;4956359;29;20051;-77